sensor_id;sensor_type;location;lat;lon;timestamp;P1;durP1;ratioP1;P2;durP2;ratioP2
29422;SDS011;16399;51.686;8.684;2022-11-20T00:02:21;16.75;;;8.33;;
29422;SDS011;16399;51.686;8.684;2022-11-20T00:05:23;18.32;;;8.65;;
29422;SDS011;16399;51.686;8.684;2022-11-20T00:08:26;16.87;;;8.33;;
29422;SDS011;16399;51.686;8.684;2022-11-20T00:11:29;21.77;;;9.33;;
29422;SDS011;16399;51.686;8.684;2022-11-20T00:14:32;17.02;;;8.85;;
29422;SDS011;16399;51.686;8.684;2022-11-20T00:17:34;21.05;;;9.28;;
29422;SDS011;16399;51.686;8.684;2022-11-20T00:20:37;21.15;;;9.23;;
29422;SDS011;16399;51.686;8.684;2022-11-20T00:23:41;18.27;;;8.78;;
29422;SDS011;16399;51.686;8.684;2022-11-20T00:26:44;21.70;;;8.63;;
29422;SDS011;16399;51.686;8.684;2022-11-20T00:29:46;23.35;;;10.75;;
29422;SDS011;16399;51.686;8.684;2022-11-20T00:32:49;16.97;;;9.75;;
29422;SDS011;16399;51.686;8.684;2022-11-20T00:35:51;21.12;;;9.05;;
29422;SDS011;16399;51.686;8.684;2022-11-20T00:38:54;15.93;;;7.97;;
29422;SDS011;16399;51.686;8.684;2022-11-20T00:41:58;22.13;;;9.00;;
29422;SDS011;16399;51.686;8.684;2022-11-20T00:45:00;17.32;;;8.45;;
29422;SDS011;16399;51.686;8.684;2022-11-20T00:48:02;24.55;;;9.28;;
29422;SDS011;16399;51.686;8.684;2022-11-20T00:51:06;20.50;;;9.10;;
29422;SDS011;16399;51.686;8.684;2022-11-20T00:57:11;18.60;;;8.43;;
29422;SDS011;16399;51.686;8.684;2022-11-20T01:00:13;21.17;;;8.78;;
29422;SDS011;16399;51.686;8.684;2022-11-20T01:03:16;22.00;;;9.55;;
29422;SDS011;16399;51.686;8.684;2022-11-20T01:06:20;22.70;;;9.05;;
29422;SDS011;16399;51.686;8.684;2022-11-20T01:09:24;22.20;;;8.85;;
29422;SDS011;16399;51.686;8.684;2022-11-20T01:12:26;17.07;;;8.58;;
29422;SDS011;16399;51.686;8.684;2022-11-20T01:15:34;17.73;;;8.78;;
29422;SDS011;16399;51.686;8.684;2022-11-20T01:18:38;18.87;;;8.73;;
29422;SDS011;16399;51.686;8.684;2022-11-20T01:21:42;16.80;;;8.38;;
29422;SDS011;16399;51.686;8.684;2022-11-20T01:24:46;22.90;;;9.33;;
29422;SDS011;16399;51.686;8.684;2022-11-20T01:27:48;20.30;;;9.13;;
29422;SDS011;16399;51.686;8.684;2022-11-20T01:30:50;15.63;;;7.25;;
29422;SDS011;16399;51.686;8.684;2022-11-20T01:33:53;15.38;;;8.10;;
29422;SDS011;16399;51.686;8.684;2022-11-20T01:39:58;16.67;;;8.03;;
29422;SDS011;16399;51.686;8.684;2022-11-20T01:43:14;17.25;;;8.05;;
29422;SDS011;16399;51.686;8.684;2022-11-20T01:46:23;15.83;;;7.55;;
29422;SDS011;16399;51.686;8.684;2022-11-20T01:49:32;16.48;;;7.53;;
29422;SDS011;16399;51.686;8.684;2022-11-20T01:52:36;16.17;;;7.10;;
29422;SDS011;16399;51.686;8.684;2022-11-20T01:55:49;14.47;;;7.22;;
29422;SDS011;16399;51.686;8.684;2022-11-20T01:58:50;14.07;;;6.83;;
29422;SDS011;16399;51.686;8.684;2022-11-20T02:01:54;17.10;;;7.67;;
29422;SDS011;16399;51.686;8.684;2022-11-20T02:04:57;17.60;;;7.60;;
29422;SDS011;16399;51.686;8.684;2022-11-20T02:08:02;14.78;;;7.30;;
29422;SDS011;16399;51.686;8.684;2022-11-20T02:11:06;14.40;;;6.58;;
29422;SDS011;16399;51.686;8.684;2022-11-20T02:14:09;15.35;;;6.97;;
29422;SDS011;16399;51.686;8.684;2022-11-20T02:17:12;16.52;;;7.55;;
29422;SDS011;16399;51.686;8.684;2022-11-20T02:20:14;17.55;;;7.65;;
29422;SDS011;16399;51.686;8.684;2022-11-20T02:26:24;14.18;;;6.78;;
29422;SDS011;16399;51.686;8.684;2022-11-20T02:29:37;17.85;;;6.72;;
29422;SDS011;16399;51.686;8.684;2022-11-20T02:32:41;15.00;;;6.70;;
29422;SDS011;16399;51.686;8.684;2022-11-20T02:35:44;14.53;;;6.33;;
29422;SDS011;16399;51.686;8.684;2022-11-20T02:38:47;12.28;;;6.33;;
29422;SDS011;16399;51.686;8.684;2022-11-20T02:41:52;12.73;;;6.13;;
29422;SDS011;16399;51.686;8.684;2022-11-20T02:44:56;15.32;;;6.53;;
29422;SDS011;16399;51.686;8.684;2022-11-20T02:47:58;11.90;;;5.42;;
29422;SDS011;16399;51.686;8.684;2022-11-20T02:51:00;14.23;;;6.20;;
29422;SDS011;16399;51.686;8.684;2022-11-20T02:54:03;15.13;;;6.45;;
29422;SDS011;16399;51.686;8.684;2022-11-20T02:57:05;19.17;;;5.72;;
29422;SDS011;16399;51.686;8.684;2022-11-20T03:00:09;15.28;;;6.75;;
29422;SDS011;16399;51.686;8.684;2022-11-20T03:03:12;12.55;;;5.70;;
29422;SDS011;16399;51.686;8.684;2022-11-20T03:06:15;10.13;;;4.72;;
29422;SDS011;16399;51.686;8.684;2022-11-20T03:09:18;10.75;;;5.12;;
29422;SDS011;16399;51.686;8.684;2022-11-20T03:12:20;11.22;;;5.55;;
29422;SDS011;16399;51.686;8.684;2022-11-20T03:15:23;12.40;;;5.53;;
29422;SDS011;16399;51.686;8.684;2022-11-20T03:18:27;11.50;;;5.17;;
29422;SDS011;16399;51.686;8.684;2022-11-20T03:21:29;13.43;;;5.12;;
29422;SDS011;16399;51.686;8.684;2022-11-20T03:24:33;14.60;;;5.45;;
29422;SDS011;16399;51.686;8.684;2022-11-20T03:27:36;12.98;;;5.83;;
29422;SDS011;16399;51.686;8.684;2022-11-20T03:30:38;10.80;;;4.83;;
29422;SDS011;16399;51.686;8.684;2022-11-20T03:33:41;10.93;;;4.75;;
29422;SDS011;16399;51.686;8.684;2022-11-20T03:36:44;11.18;;;4.90;;
29422;SDS011;16399;51.686;8.684;2022-11-20T03:39:46;11.65;;;5.08;;
29422;SDS011;16399;51.686;8.684;2022-11-20T03:42:49;11.88;;;5.00;;
29422;SDS011;16399;51.686;8.684;2022-11-20T03:45:51;9.45;;;4.15;;
29422;SDS011;16399;51.686;8.684;2022-11-20T03:48:54;14.73;;;4.75;;
29422;SDS011;16399;51.686;8.684;2022-11-20T03:51:56;10.58;;;4.83;;
29422;SDS011;16399;51.686;8.684;2022-11-20T03:54:58;13.10;;;5.53;;
29422;SDS011;16399;51.686;8.684;2022-11-20T03:58:01;10.80;;;4.80;;
29422;SDS011;16399;51.686;8.684;2022-11-20T04:04:26;11.73;;;5.35;;
29422;SDS011;16399;51.686;8.684;2022-11-20T04:07:28;8.75;;;4.58;;
29422;SDS011;16399;51.686;8.684;2022-11-20T04:10:31;10.18;;;4.75;;
29422;SDS011;16399;51.686;8.684;2022-11-20T04:13:33;9.13;;;4.12;;
29422;SDS011;16399;51.686;8.684;2022-11-20T04:16:44;8.70;;;3.85;;
29422;SDS011;16399;51.686;8.684;2022-11-20T04:19:46;10.85;;;4.12;;
29422;SDS011;16399;51.686;8.684;2022-11-20T04:22:49;9.15;;;3.92;;
29422;SDS011;16399;51.686;8.684;2022-11-20T04:25:52;9.45;;;4.37;;
29422;SDS011;16399;51.686;8.684;2022-11-20T04:28:55;8.38;;;3.80;;
29422;SDS011;16399;51.686;8.684;2022-11-20T04:31:58;7.73;;;3.67;;
29422;SDS011;16399;51.686;8.684;2022-11-20T04:35:01;7.60;;;3.75;;
29422;SDS011;16399;51.686;8.684;2022-11-20T04:38:03;8.08;;;3.95;;
29422;SDS011;16399;51.686;8.684;2022-11-20T04:41:06;7.28;;;3.40;;
29422;SDS011;16399;51.686;8.684;2022-11-20T04:47:11;8.38;;;3.27;;
29422;SDS011;16399;51.686;8.684;2022-11-20T04:50:14;10.25;;;3.30;;
29422;SDS011;16399;51.686;8.684;2022-11-20T04:53:16;10.35;;;4.47;;
29422;SDS011;16399;51.686;8.684;2022-11-20T04:56:19;12.30;;;5.15;;
29422;SDS011;16399;51.686;8.684;2022-11-20T04:59:21;15.10;;;5.50;;
29422;SDS011;16399;51.686;8.684;2022-11-20T05:02:23;11.95;;;5.28;;
29422;SDS011;16399;51.686;8.684;2022-11-20T05:05:26;13.18;;;5.65;;
29422;SDS011;16399;51.686;8.684;2022-11-20T05:08:29;12.05;;;5.83;;
29422;SDS011;16399;51.686;8.684;2022-11-20T05:11:32;13.10;;;5.70;;
29422;SDS011;16399;51.686;8.684;2022-11-20T05:14:34;12.20;;;5.80;;
29422;SDS011;16399;51.686;8.684;2022-11-20T05:17:36;11.57;;;5.50;;
29422;SDS011;16399;51.686;8.684;2022-11-20T05:20:39;12.47;;;6.28;;
29422;SDS011;16399;51.686;8.684;2022-11-20T05:23:41;12.37;;;5.92;;
29422;SDS011;16399;51.686;8.684;2022-11-20T05:26:49;12.70;;;6.55;;
29422;SDS011;16399;51.686;8.684;2022-11-20T05:29:51;11.60;;;5.30;;
29422;SDS011;16399;51.686;8.684;2022-11-20T05:32:53;13.78;;;5.83;;
29422;SDS011;16399;51.686;8.684;2022-11-20T05:35:59;12.35;;;5.28;;
29422;SDS011;16399;51.686;8.684;2022-11-20T05:39:01;11.12;;;5.15;;
29422;SDS011;16399;51.686;8.684;2022-11-20T05:42:03;14.38;;;6.35;;
29422;SDS011;16399;51.686;8.684;2022-11-20T05:45:24;11.10;;;5.83;;
29422;SDS011;16399;51.686;8.684;2022-11-20T05:48:26;13.22;;;5.62;;
29422;SDS011;16399;51.686;8.684;2022-11-20T05:51:28;15.10;;;5.90;;
29422;SDS011;16399;51.686;8.684;2022-11-20T05:54:31;14.33;;;5.95;;
29422;SDS011;16399;51.686;8.684;2022-11-20T05:57:33;12.58;;;5.92;;
29422;SDS011;16399;51.686;8.684;2022-11-20T06:00:36;9.90;;;5.03;;
29422;SDS011;16399;51.686;8.684;2022-11-20T06:03:39;11.33;;;5.28;;
29422;SDS011;16399;51.686;8.684;2022-11-20T06:06:42;10.88;;;5.37;;
29422;SDS011;16399;51.686;8.684;2022-11-20T06:09:45;10.70;;;5.45;;
29422;SDS011;16399;51.686;8.684;2022-11-20T06:12:49;16.15;;;5.35;;
29422;SDS011;16399;51.686;8.684;2022-11-20T06:15:52;14.30;;;6.00;;
29422;SDS011;16399;51.686;8.684;2022-11-20T06:18:55;11.30;;;5.72;;
29422;SDS011;16399;51.686;8.684;2022-11-20T06:21:57;12.90;;;5.62;;
29422;SDS011;16399;51.686;8.684;2022-11-20T06:24:59;12.20;;;5.53;;
29422;SDS011;16399;51.686;8.684;2022-11-20T06:31:12;11.85;;;6.10;;
29422;SDS011;16399;51.686;8.684;2022-11-20T06:34:16;12.90;;;5.42;;
29422;SDS011;16399;51.686;8.684;2022-11-20T06:37:19;11.68;;;5.42;;
29422;SDS011;16399;51.686;8.684;2022-11-20T06:40:22;11.57;;;5.47;;
29422;SDS011;16399;51.686;8.684;2022-11-20T06:43:24;10.90;;;5.67;;
29422;SDS011;16399;51.686;8.684;2022-11-20T06:46:27;17.80;;;8.68;;
29422;SDS011;16399;51.686;8.684;2022-11-20T06:49:29;11.68;;;5.75;;
29422;SDS011;16399;51.686;8.684;2022-11-20T06:52:32;11.93;;;5.50;;
29422;SDS011;16399;51.686;8.684;2022-11-20T06:55:34;11.60;;;5.65;;
29422;SDS011;16399;51.686;8.684;2022-11-20T06:58:37;12.78;;;6.42;;
29422;SDS011;16399;51.686;8.684;2022-11-20T07:01:39;22.40;;;10.13;;
29422;SDS011;16399;51.686;8.684;2022-11-20T07:04:41;83.75;;;30.85;;
29422;SDS011;16399;51.686;8.684;2022-11-20T07:07:44;30.43;;;12.23;;
29422;SDS011;16399;51.686;8.684;2022-11-20T07:10:46;12.47;;;5.92;;
29422;SDS011;16399;51.686;8.684;2022-11-20T07:13:48;15.63;;;6.40;;
29422;SDS011;16399;51.686;8.684;2022-11-20T07:16:51;13.13;;;6.05;;
29422;SDS011;16399;51.686;8.684;2022-11-20T07:19:53;16.50;;;7.40;;
29422;SDS011;16399;51.686;8.684;2022-11-20T07:22:56;12.63;;;6.20;;
29422;SDS011;16399;51.686;8.684;2022-11-20T07:26:23;10.30;;;4.85;;
29422;SDS011;16399;51.686;8.684;2022-11-20T07:29:25;13.22;;;6.97;;
29422;SDS011;16399;51.686;8.684;2022-11-20T07:32:29;12.85;;;7.00;;
29422;SDS011;16399;51.686;8.684;2022-11-20T07:35:32;7.72;;;3.77;;
29422;SDS011;16399;51.686;8.684;2022-11-20T07:38:36;9.98;;;4.83;;
29422;SDS011;16399;51.686;8.684;2022-11-20T07:41:39;7.80;;;3.85;;
29422;SDS011;16399;51.686;8.684;2022-11-20T07:44:41;9.73;;;4.60;;
29422;SDS011;16399;51.686;8.684;2022-11-20T07:47:44;8.90;;;4.20;;
29422;SDS011;16399;51.686;8.684;2022-11-20T07:50:46;10.15;;;5.95;;
29422;SDS011;16399;51.686;8.684;2022-11-20T07:53:50;11.57;;;6.00;;
29422;SDS011;16399;51.686;8.684;2022-11-20T07:56:53;10.28;;;5.08;;
29422;SDS011;16399;51.686;8.684;2022-11-20T07:59:55;16.60;;;7.40;;
29422;SDS011;16399;51.686;8.684;2022-11-20T08:02:58;10.75;;;5.20;;
29422;SDS011;16399;51.686;8.684;2022-11-20T08:06:00;11.48;;;5.10;;
29422;SDS011;16399;51.686;8.684;2022-11-20T08:09:03;11.08;;;5.22;;
29422;SDS011;16399;51.686;8.684;2022-11-20T08:12:05;19.37;;;8.03;;
29422;SDS011;16399;51.686;8.684;2022-11-20T08:15:25;12.95;;;5.22;;
29422;SDS011;16399;51.686;8.684;2022-11-20T08:18:28;13.38;;;5.22;;
29422;SDS011;16399;51.686;8.684;2022-11-20T08:21:30;31.07;;;20.92;;
29422;SDS011;16399;51.686;8.684;2022-11-20T08:24:32;15.13;;;7.70;;
29422;SDS011;16399;51.686;8.684;2022-11-20T08:27:39;10.03;;;5.78;;
29422;SDS011;16399;51.686;8.684;2022-11-20T08:30:41;13.15;;;6.25;;
29422;SDS011;16399;51.686;8.684;2022-11-20T08:37:05;15.63;;;7.03;;
29422;SDS011;16399;51.686;8.684;2022-11-20T08:40:09;17.80;;;8.23;;
29422;SDS011;16399;51.686;8.684;2022-11-20T08:43:12;22.70;;;9.18;;
29422;SDS011;16399;51.686;8.684;2022-11-20T08:46:16;21.97;;;10.20;;
29422;SDS011;16399;51.686;8.684;2022-11-20T08:49:18;23.83;;;10.78;;
29422;SDS011;16399;51.686;8.684;2022-11-20T08:52:21;17.98;;;8.63;;
29422;SDS011;16399;51.686;8.684;2022-11-20T08:55:26;16.67;;;8.03;;
29422;SDS011;16399;51.686;8.684;2022-11-20T08:58:28;17.85;;;8.28;;
29422;SDS011;16399;51.686;8.684;2022-11-20T09:01:31;14.20;;;7.20;;
29422;SDS011;16399;51.686;8.684;2022-11-20T09:04:33;19.30;;;8.25;;
29422;SDS011;16399;51.686;8.684;2022-11-20T09:07:35;18.35;;;7.85;;
29422;SDS011;16399;51.686;8.684;2022-11-20T09:10:38;18.12;;;8.20;;
29422;SDS011;16399;51.686;8.684;2022-11-20T09:13:42;13.83;;;6.45;;
29422;SDS011;16399;51.686;8.684;2022-11-20T09:16:45;14.47;;;6.17;;
29422;SDS011;16399;51.686;8.684;2022-11-20T09:19:47;14.75;;;6.15;;
29422;SDS011;16399;51.686;8.684;2022-11-20T09:22:50;14.85;;;6.75;;
29422;SDS011;16399;51.686;8.684;2022-11-20T09:25:52;16.57;;;6.28;;
29422;SDS011;16399;51.686;8.684;2022-11-20T09:28:56;16.10;;;7.15;;
29422;SDS011;16399;51.686;8.684;2022-11-20T09:31:58;15.90;;;6.12;;
29422;SDS011;16399;51.686;8.684;2022-11-20T09:35:01;15.72;;;6.87;;
29422;SDS011;16399;51.686;8.684;2022-11-20T09:38:04;15.30;;;6.30;;
29422;SDS011;16399;51.686;8.684;2022-11-20T09:41:10;16.87;;;6.92;;
29422;SDS011;16399;51.686;8.684;2022-11-20T09:44:29;18.40;;;7.03;;
29422;SDS011;16399;51.686;8.684;2022-11-20T09:47:52;18.62;;;7.75;;
29422;SDS011;16399;51.686;8.684;2022-11-20T09:51:19;14.33;;;5.80;;
29422;SDS011;16399;51.686;8.684;2022-11-20T09:54:39;16.02;;;6.37;;
29422;SDS011;16399;51.686;8.684;2022-11-20T09:57:40;20.30;;;7.30;;
29422;SDS011;16399;51.686;8.684;2022-11-20T10:00:44;14.25;;;6.78;;
29422;SDS011;16399;51.686;8.684;2022-11-20T10:03:56;17.57;;;7.12;;
29422;SDS011;16399;51.686;8.684;2022-11-20T10:10:25;15.80;;;6.40;;
29422;SDS011;16399;51.686;8.684;2022-11-20T10:20:44;16.52;;;6.90;;
29422;SDS011;16399;51.686;8.684;2022-11-20T10:30:43;18.00;;;8.20;;
29422;SDS011;16399;51.686;8.684;2022-11-20T10:36:55;18.35;;;7.40;;
29422;SDS011;16399;51.686;8.684;2022-11-20T10:40:02;17.17;;;8.63;;
29422;SDS011;16399;51.686;8.684;2022-11-20T10:43:09;18.48;;;8.35;;
29422;SDS011;16399;51.686;8.684;2022-11-20T10:46:20;18.95;;;7.92;;
29422;SDS011;16399;51.686;8.684;2022-11-20T10:49:23;20.68;;;8.93;;
29422;SDS011;16399;51.686;8.684;2022-11-20T10:52:34;14.13;;;7.78;;
29422;SDS011;16399;51.686;8.684;2022-11-20T11:02:14;16.20;;;8.38;;
29422;SDS011;16399;51.686;8.684;2022-11-20T11:08:41;18.10;;;8.43;;
29422;SDS011;16399;51.686;8.684;2022-11-20T11:11:45;16.02;;;8.80;;
29422;SDS011;16399;51.686;8.684;2022-11-20T11:14:48;14.68;;;7.65;;
29422;SDS011;16399;51.686;8.684;2022-11-20T11:17:51;16.02;;;8.08;;
29422;SDS011;16399;51.686;8.684;2022-11-20T11:20:54;15.98;;;8.43;;
29422;SDS011;16399;51.686;8.684;2022-11-20T11:23:58;17.30;;;9.08;;
29422;SDS011;16399;51.686;8.684;2022-11-20T11:27:03;15.70;;;8.45;;
29422;SDS011;16399;51.686;8.684;2022-11-20T11:30:12;17.27;;;8.23;;
29422;SDS011;16399;51.686;8.684;2022-11-20T11:33:19;21.52;;;8.90;;
29422;SDS011;16399;51.686;8.684;2022-11-20T11:36:26;16.93;;;8.43;;
29422;SDS011;16399;51.686;8.684;2022-11-20T11:39:28;16.87;;;9.13;;
29422;SDS011;16399;51.686;8.684;2022-11-20T11:42:32;17.80;;;9.27;;
29422;SDS011;16399;51.686;8.684;2022-11-20T11:45:35;19.40;;;9.05;;
29422;SDS011;16399;51.686;8.684;2022-11-20T11:48:38;18.23;;;9.73;;
29422;SDS011;16399;51.686;8.684;2022-11-20T11:55:17;22.07;;;9.38;;
29422;SDS011;16399;51.686;8.684;2022-11-20T12:01:47;14.45;;;8.03;;
29422;SDS011;16399;51.686;8.684;2022-11-20T12:04:54;14.50;;;7.92;;
29422;SDS011;16399;51.686;8.684;2022-11-20T12:07:57;20.23;;;9.48;;
29422;SDS011;16399;51.686;8.684;2022-11-20T12:11:06;21.00;;;9.78;;
29422;SDS011;16399;51.686;8.684;2022-11-20T12:14:19;25.40;;;12.70;;
29422;SDS011;16399;51.686;8.684;2022-11-20T12:17:25;24.02;;;11.35;;
29422;SDS011;16399;51.686;8.684;2022-11-20T12:20:33;22.65;;;11.40;;
29422;SDS011;16399;51.686;8.684;2022-11-20T12:23:44;27.73;;;12.53;;
29422;SDS011;16399;51.686;8.684;2022-11-20T12:30:16;18.60;;;9.55;;
29422;SDS011;16399;51.686;8.684;2022-11-20T12:36:56;20.23;;;9.63;;
29422;SDS011;16399;51.686;8.684;2022-11-20T12:39:56;16.60;;;7.72;;
29422;SDS011;16399;51.686;8.684;2022-11-20T12:46:38;12.45;;;6.80;;
29422;SDS011;16399;51.686;8.684;2022-11-20T12:49:53;12.43;;;7.03;;
29422;SDS011;16399;51.686;8.684;2022-11-20T12:53:04;13.35;;;7.05;;
29422;SDS011;16399;51.686;8.684;2022-11-20T13:03:23;11.85;;;6.83;;
29422;SDS011;16399;51.686;8.684;2022-11-20T13:06:40;12.45;;;6.42;;
29422;SDS011;16399;51.686;8.684;2022-11-20T13:09:48;12.15;;;6.62;;
29422;SDS011;16399;51.686;8.684;2022-11-20T13:12:51;11.90;;;5.85;;
29422;SDS011;16399;51.686;8.684;2022-11-20T13:16:01;13.95;;;6.42;;
29422;SDS011;16399;51.686;8.684;2022-11-20T13:19:04;24.63;;;12.20;;
29422;SDS011;16399;51.686;8.684;2022-11-20T13:22:09;13.55;;;6.83;;
29422;SDS011;16399;51.686;8.684;2022-11-20T13:25:27;14.40;;;6.30;;
29422;SDS011;16399;51.686;8.684;2022-11-20T13:28:31;14.93;;;6.83;;
29422;SDS011;16399;51.686;8.684;2022-11-20T13:31:34;12.95;;;7.35;;
29422;SDS011;16399;51.686;8.684;2022-11-20T13:34:50;13.20;;;5.85;;
29422;SDS011;16399;51.686;8.684;2022-11-20T13:38:01;12.10;;;6.55;;
29422;SDS011;16399;51.686;8.684;2022-11-20T13:41:07;13.85;;;6.33;;
29422;SDS011;16399;51.686;8.684;2022-11-20T13:44:29;11.68;;;6.65;;
29422;SDS011;16399;51.686;8.684;2022-11-20T13:47:33;12.90;;;6.95;;
29422;SDS011;16399;51.686;8.684;2022-11-20T14:00:20;13.53;;;6.55;;
29422;SDS011;16399;51.686;8.684;2022-11-20T14:03:24;13.85;;;7.10;;
29422;SDS011;16399;51.686;8.684;2022-11-20T14:06:29;13.70;;;7.28;;
29422;SDS011;16399;51.686;8.684;2022-11-20T14:09:33;13.30;;;6.78;;
29422;SDS011;16399;51.686;8.684;2022-11-20T14:12:35;14.15;;;7.45;;
29422;SDS011;16399;51.686;8.684;2022-11-20T14:15:38;11.70;;;6.72;;
29422;SDS011;16399;51.686;8.684;2022-11-20T14:18:41;12.35;;;6.80;;
29422;SDS011;16399;51.686;8.684;2022-11-20T14:21:43;12.20;;;6.40;;
29422;SDS011;16399;51.686;8.684;2022-11-20T14:24:46;12.93;;;6.28;;
29422;SDS011;16399;51.686;8.684;2022-11-20T14:28:10;11.95;;;6.08;;
29422;SDS011;16399;51.686;8.684;2022-11-20T14:31:21;12.40;;;6.17;;
29422;SDS011;16399;51.686;8.684;2022-11-20T14:34:18;14.87;;;6.55;;
29422;SDS011;16399;51.686;8.684;2022-11-20T14:37:24;11.63;;;6.15;;
29422;SDS011;16399;51.686;8.684;2022-11-20T14:40:30;10.85;;;5.95;;
29422;SDS011;16399;51.686;8.684;2022-11-20T14:43:35;14.35;;;7.12;;
29422;SDS011;16399;51.686;8.684;2022-11-20T14:46:38;12.45;;;6.00;;
29422;SDS011;16399;51.686;8.684;2022-11-20T14:49:40;14.07;;;6.70;;
29422;SDS011;16399;51.686;8.684;2022-11-20T14:52:53;11.70;;;6.45;;
29422;SDS011;16399;51.686;8.684;2022-11-20T14:56:01;11.63;;;6.15;;
29422;SDS011;16399;51.686;8.684;2022-11-20T14:59:04;11.30;;;5.58;;
29422;SDS011;16399;51.686;8.684;2022-11-20T15:02:08;13.35;;;6.42;;
29422;SDS011;16399;51.686;8.684;2022-11-20T15:05:12;13.68;;;6.03;;
29422;SDS011;16399;51.686;8.684;2022-11-20T15:08:17;13.08;;;6.60;;
29422;SDS011;16399;51.686;8.684;2022-11-20T15:11:30;22.95;;;11.00;;
29422;SDS011;16399;51.686;8.684;2022-11-20T15:14:37;17.13;;;7.70;;
29422;SDS011;16399;51.686;8.684;2022-11-20T15:17:39;13.90;;;7.03;;
29422;SDS011;16399;51.686;8.684;2022-11-20T15:20:42;18.77;;;8.90;;
29422;SDS011;16399;51.686;8.684;2022-11-20T15:23:45;17.60;;;8.80;;
29422;SDS011;16399;51.686;8.684;2022-11-20T15:26:48;18.85;;;8.63;;
29422;SDS011;16399;51.686;8.684;2022-11-20T15:29:50;15.85;;;7.30;;
29422;SDS011;16399;51.686;8.684;2022-11-20T15:32:53;19.80;;;7.65;;
29422;SDS011;16399;51.686;8.684;2022-11-20T15:35:55;14.50;;;7.08;;
29422;SDS011;16399;51.686;8.684;2022-11-20T15:38:57;15.75;;;7.95;;
29422;SDS011;16399;51.686;8.684;2022-11-20T15:41:59;14.75;;;7.60;;
29422;SDS011;16399;51.686;8.684;2022-11-20T15:45:02;15.30;;;7.80;;
29422;SDS011;16399;51.686;8.684;2022-11-20T15:48:04;15.68;;;8.20;;
29422;SDS011;16399;51.686;8.684;2022-11-20T15:54:20;18.55;;;7.90;;
29422;SDS011;16399;51.686;8.684;2022-11-20T15:57:23;18.15;;;7.33;;
29422;SDS011;16399;51.686;8.684;2022-11-20T16:00:27;16.77;;;7.03;;
29422;SDS011;16399;51.686;8.684;2022-11-20T16:03:30;14.70;;;7.42;;
29422;SDS011;16399;51.686;8.684;2022-11-20T16:06:32;16.20;;;7.97;;
29422;SDS011;16399;51.686;8.684;2022-11-20T16:09:34;14.58;;;6.92;;
29422;SDS011;16399;51.686;8.684;2022-11-20T16:12:36;16.70;;;6.67;;
29422;SDS011;16399;51.686;8.684;2022-11-20T16:15:57;12.03;;;6.30;;
29422;SDS011;16399;51.686;8.684;2022-11-20T16:19:00;19.25;;;7.70;;
29422;SDS011;16399;51.686;8.684;2022-11-20T16:22:03;15.25;;;6.80;;
29422;SDS011;16399;51.686;8.684;2022-11-20T16:25:05;15.05;;;7.12;;
29422;SDS011;16399;51.686;8.684;2022-11-20T16:28:08;17.05;;;8.18;;
29422;SDS011;16399;51.686;8.684;2022-11-20T16:31:11;16.50;;;7.40;;
29422;SDS011;16399;51.686;8.684;2022-11-20T16:34:15;18.00;;;8.33;;
29422;SDS011;16399;51.686;8.684;2022-11-20T16:37:18;15.25;;;8.15;;
29422;SDS011;16399;51.686;8.684;2022-11-20T16:40:21;17.25;;;8.08;;
29422;SDS011;16399;51.686;8.684;2022-11-20T16:43:24;17.02;;;7.62;;
29422;SDS011;16399;51.686;8.684;2022-11-20T16:46:27;12.98;;;6.83;;
29422;SDS011;16399;51.686;8.684;2022-11-20T16:49:31;13.45;;;6.53;;
29422;SDS011;16399;51.686;8.684;2022-11-20T16:52:33;14.78;;;6.87;;
29422;SDS011;16399;51.686;8.684;2022-11-20T16:55:36;14.75;;;7.05;;
29422;SDS011;16399;51.686;8.684;2022-11-20T16:58:38;14.63;;;7.45;;
29422;SDS011;16399;51.686;8.684;2022-11-20T17:01:40;14.80;;;7.22;;
29422;SDS011;16399;51.686;8.684;2022-11-20T17:04:43;17.57;;;7.85;;
29422;SDS011;16399;51.686;8.684;2022-11-20T17:07:45;15.30;;;7.40;;
29422;SDS011;16399;51.686;8.684;2022-11-20T17:10:48;15.10;;;6.95;;
29422;SDS011;16399;51.686;8.684;2022-11-20T17:13:50;16.35;;;7.97;;
29422;SDS011;16399;51.686;8.684;2022-11-20T17:16:53;16.15;;;7.75;;
29422;SDS011;16399;51.686;8.684;2022-11-20T17:19:55;15.78;;;7.20;;
29422;SDS011;16399;51.686;8.684;2022-11-20T17:22:57;14.50;;;7.22;;
29422;SDS011;16399;51.686;8.684;2022-11-20T17:26:00;17.57;;;7.83;;
29422;SDS011;16399;51.686;8.684;2022-11-20T17:29:05;19.10;;;8.98;;
29422;SDS011;16399;51.686;8.684;2022-11-20T17:32:09;19.77;;;8.85;;
29422;SDS011;16399;51.686;8.684;2022-11-20T17:35:11;17.62;;;8.88;;
29422;SDS011;16399;51.686;8.684;2022-11-20T17:38:14;18.77;;;9.70;;
29422;SDS011;16399;51.686;8.684;2022-11-20T17:41:17;20.48;;;9.45;;
29422;SDS011;16399;51.686;8.684;2022-11-20T17:44:24;20.88;;;9.68;;
29422;SDS011;16399;51.686;8.684;2022-11-20T17:47:27;19.48;;;10.13;;
29422;SDS011;16399;51.686;8.684;2022-11-20T17:50:29;20.48;;;10.15;;
29422;SDS011;16399;51.686;8.684;2022-11-20T17:53:32;23.00;;;10.50;;
29422;SDS011;16399;51.686;8.684;2022-11-20T17:56:36;23.87;;;10.88;;
29422;SDS011;16399;51.686;8.684;2022-11-20T17:59:56;25.57;;;12.10;;
29422;SDS011;16399;51.686;8.684;2022-11-20T18:02:58;35.88;;;16.35;;
29422;SDS011;16399;51.686;8.684;2022-11-20T18:06:14;42.05;;;22.05;;
29422;SDS011;16399;51.686;8.684;2022-11-20T18:09:20;83.85;;;40.80;;
29422;SDS011;16399;51.686;8.684;2022-11-20T18:12:22;212.15;;;89.13;;
29422;SDS011;16399;51.686;8.684;2022-11-20T18:15:25;272.33;;;111.62;;
29422;SDS011;16399;51.686;8.684;2022-11-20T18:18:27;65.35;;;30.82;;
29422;SDS011;16399;51.686;8.684;2022-11-20T18:21:29;63.55;;;31.77;;
29422;SDS011;16399;51.686;8.684;2022-11-20T18:24:37;77.15;;;44.15;;
29422;SDS011;16399;51.686;8.684;2022-11-20T18:27:40;34.05;;;19.65;;
29422;SDS011;16399;51.686;8.684;2022-11-20T18:30:42;27.73;;;15.58;;
29422;SDS011;16399;51.686;8.684;2022-11-20T18:33:45;29.18;;;14.45;;
29422;SDS011;16399;51.686;8.684;2022-11-20T18:36:47;40.17;;;23.90;;
29422;SDS011;16399;51.686;8.684;2022-11-20T18:39:50;26.77;;;13.30;;
29422;SDS011;16399;51.686;8.684;2022-11-20T18:42:52;33.10;;;19.57;;
29422;SDS011;16399;51.686;8.684;2022-11-20T18:46:16;27.07;;;13.62;;
29422;SDS011;16399;51.686;8.684;2022-11-20T18:49:20;30.12;;;15.72;;
29422;SDS011;16399;51.686;8.684;2022-11-20T18:52:23;26.77;;;12.73;;
29422;SDS011;16399;51.686;8.684;2022-11-20T18:55:31;29.70;;;14.83;;
29422;SDS011;16399;51.686;8.684;2022-11-20T18:58:33;25.12;;;12.65;;
29422;SDS011;16399;51.686;8.684;2022-11-20T19:01:37;23.35;;;11.53;;
29422;SDS011;16399;51.686;8.684;2022-11-20T19:04:39;26.25;;;12.82;;
29422;SDS011;16399;51.686;8.684;2022-11-20T19:07:41;25.45;;;12.98;;
29422;SDS011;16399;51.686;8.684;2022-11-20T19:10:45;22.35;;;13.28;;
29422;SDS011;16399;51.686;8.684;2022-11-20T19:13:47;23.02;;;11.85;;
29422;SDS011;16399;51.686;8.684;2022-11-20T19:16:50;25.60;;;13.75;;
29422;SDS011;16399;51.686;8.684;2022-11-20T19:19:53;26.25;;;12.70;;
29422;SDS011;16399;51.686;8.684;2022-11-20T19:22:57;23.40;;;11.97;;
29422;SDS011;16399;51.686;8.684;2022-11-20T19:25:59;24.45;;;11.95;;
29422;SDS011;16399;51.686;8.684;2022-11-20T19:29:02;25.55;;;13.08;;
29422;SDS011;16399;51.686;8.684;2022-11-20T19:32:06;24.87;;;12.85;;
29422;SDS011;16399;51.686;8.684;2022-11-20T19:35:08;27.98;;;14.38;;
29422;SDS011;16399;51.686;8.684;2022-11-20T19:38:10;25.62;;;13.78;;
29422;SDS011;16399;51.686;8.684;2022-11-20T19:41:13;28.90;;;14.18;;
29422;SDS011;16399;51.686;8.684;2022-11-20T19:44:17;28.75;;;14.23;;